Aeroporto :
LOGIN :

Iscrizione | Disclaimer

   EN    FR    IT 

 










Sommario :    VFR   VFR Marginale   IFR   IFR Intensivo   IFR Molto Intensivo
Visibilità : 
Base nubi : 
>= 8 km
>= 3000ft
5 / 8 km
1000 / 3000 ft
1500m / 5 km
500 / 1000 ft
800 / 1500m
200 / 500 ft
< 800m
< 200 ft
Simboli :   Temporali  Nebbia  Neve Forte  Precipitazioni Forti  Vento > 20 kt
SIGMETs :   Varie  Temporali  Ghiacco  Turbolenza  Onda orograficha  Ceneri Vulcaniche






- Altitudine del aeroporto : 55 ft
- Codice IATA : DSA


EGCN - Robin Hood Doncaster Sheffield

ULTIMO METAR :
  • 131750Z 27009KT 9999 SCT025 BKN031 18/13 Q1019

METARs OBSOLETI :
  • 131720Z 29012KT 9999 FEW015 SCT021 BKN027 18/14 Q1018
  • 131650Z 23010KT 9999 SCT022 BKN029 18/16 Q1018
  • 131620Z 21010KT 9999 FEW013 SCT017 18/16 Q1019
  • 131550Z 20007KT 9999 VCSH FEW009 SCT014 BKN031 17/16 Q1019 RERA
  • 131520Z 23007KT 9999 3000S SHRA SCT019 BKN024 18/15 Q1019

TAF TAF EGCN
Valido dal 13 a 18 ore il 14 a 18 ore UTC


131707Z 1318/1418 28009KT 9999 SCT030
PROB30
TEMPO 1318/1321 7000 SHRA BKN012



MetMap, La meteo Aeronautica in un colpo d'occhio ! - Copyright ORBIFLY Dicembre 2007 - Disclaimer

ORBIFLY MET'MAP TEAM :

Programmazione e sviluppo : Alexandra Zaïnal
Concezione : Baudouin d'Aumeries
Aiuto per la programmazione : Marc-Olivier Méhu
Supporto tecnico e logistico : Manuel Goepfert
Aiuto per la traduzione : Arnaldo La Scala

Contatto : metmap@orbifly.com




FONTI E CREDITI :

   NOAA